DFAII EDNY-LOWI
Flight info
| Callsign | DFAII |
|---|---|
| Flight time | N/A |
| Altitude | 12000 |
| Route | EDNY/24 BEMKI L607 XEBIX XEBIX1B |
| Aircraft | PC12/L-SDFGRWY/S |
Departure
| Time | N/A |
|---|---|
| Airport | Bodensee Airport Friedrichshafen (EDNY) |
Arrival
| Time | 2026-05-05 18:46 |
|---|---|
| Airport | Innsbruck Airport (LOWI) |
| Time | Latitude | Longitude | Altitude | Speed | Heading |
|---|---|---|---|---|---|
| 2026-05-05 18:39 | 47.25255 | 11.17968 | 6145 ft | 124 kts | 105° |
| 2026-05-05 18:39 | 47.25091 | 11.19257 | 5847 ft | 132 kts | 105° |
| 2026-05-05 18:39 | 47.24919 | 11.20579 | 5551 ft | 126 kts | 100° |
| 2026-05-05 18:40 | 47.24802 | 11.21838 | 5136 ft | 124 kts | 103° |
| 2026-05-05 18:40 | 47.24744 | 11.23063 | 4689 ft | 121 kts | 91° |
| 2026-05-05 18:40 | 47.24851 | 11.24305 | 4258 ft | 121 kts | 81° |
| 2026-05-05 18:40 | 47.24875 | 11.24456 | 4214 ft | 121 kts | 81° |
| 2026-05-05 18:41 | 47.24907 | 11.24651 | 4169 ft | 121 kts | 79° |
| 2026-05-05 18:41 | 47.25069 | 11.25820 | 3698 ft | 122 kts | 83° |
| 2026-05-05 18:41 | 47.25178 | 11.27048 | 3324 ft | 120 kts | 82° |
| 2026-05-05 18:41 | 47.25360 | 11.28249 | 2997 ft | 118 kts | 78° |
| 2026-05-05 18:42 | 47.25505 | 11.29422 | 2720 ft | 116 kts | 86° |
| 2026-05-05 18:42 | 47.25634 | 11.30525 | 2499 ft | 111 kts | 84° |
| 2026-05-05 18:42 | 47.25720 | 11.31633 | 2288 ft | 103 kts | 85° |
| 2026-05-05 18:42 | 47.25841 | 11.32626 | 2269 ft | 98 kts | 86° |
| 2026-05-05 18:43 | 47.25965 | 11.33656 | 2317 ft | 111 kts | 84° |
| 2026-05-05 18:43 | 47.26136 | 11.34810 | 2364 ft | 113 kts | 87° |
| 2026-05-05 18:43 | 47.25840 | 11.35588 | 2487 ft | 87 kts | 165° |
| 2026-05-05 18:43 | 47.25263 | 11.35311 | 2431 ft | 94 kts | 217° |
| 2026-05-05 18:44 | 47.25000 | 11.34438 | 2668 ft | 91 kts | 249° |
| 2026-05-05 18:44 | 47.24875 | 11.33501 | 2768 ft | 97 kts | 255° |
| 2026-05-05 18:44 | 47.24845 | 11.32499 | 2904 ft | 101 kts | 267° |
| 2026-05-05 18:44 | 47.24838 | 11.31424 | 3017 ft | 107 kts | 267° |
| 2026-05-05 18:45 | 47.25050 | 11.30399 | 3025 ft | 105 kts | 313° |
| 2026-05-05 18:45 | 47.25713 | 11.30405 | 2744 ft | 101 kts | 49° |
| 2026-05-05 18:45 | 47.25832 | 11.31309 | 2427 ft | 85 kts | 105° |
| 2026-05-05 18:45 | 47.25822 | 11.32110 | 2126 ft | 76 kts | 96° |
| 2026-05-05 18:46 | 47.25871 | 11.32860 | 1989 ft | 72 kts | 91° |
| 2026-05-05 18:46 | 47.25938 | 11.33596 | 1900 ft | 73 kts | 88° |
| 2026-05-05 18:46 | 47.25960 | 11.34071 | 1902 ft | 29 kts | 76° |
| 2026-05-05 18:46 | 47.26007 | 11.34344 | 1904 ft | 33 kts | 86° |
| 2026-05-05 18:47 | 47.26044 | 11.34712 | 1898 ft | 27 kts | 71° |
| 2026-05-05 18:47 | 47.26115 | 11.34829 | 1898 ft | 16 kts | 5° |
| 2026-05-05 18:47 | 47.26180 | 11.34833 | 1903 ft | 7 kts | 1° |
| 2026-05-05 18:47 | 47.26212 | 11.34823 | 1897 ft | 0 kts | 341° |
| 2026-05-05 18:48 | 47.26223 | 11.34818 | 1901 ft | 4 kts | 343° |
| 2026-05-05 18:48 | 47.26224 | 11.34817 | 1901 ft | 0 kts | 343° |